createdAt,value
2022-08-16T00:00:44.380Z,24.80
2022-08-16T00:03:30.334Z,24.78
2022-08-16T00:06:23.736Z,24.69
2022-08-16T00:09:11.039Z,24.72
2022-08-16T00:11:57.066Z,24.72
2022-08-16T00:14:45.301Z,24.71
2022-08-16T00:17:56.601Z,24.67
2022-08-16T00:20:39.454Z,24.62
2022-08-16T00:23:34.823Z,24.63
2022-08-16T00:26:35.609Z,24.59
2022-08-16T00:29:24.630Z,24.55
2022-08-16T00:32:11.421Z,24.53
2022-08-16T00:35:04.958Z,24.49
2022-08-16T00:38:03.603Z,24.49
2022-08-16T00:41:09.733Z,24.47
2022-08-16T00:43:58.915Z,24.44
2022-08-16T00:47:02.207Z,24.37
2022-08-16T00:49:56.503Z,24.37
2022-08-16T00:52:45.968Z,24.29
2022-08-16T00:55:40.573Z,24.28
2022-08-16T00:58:32.273Z,24.21
2022-08-16T01:01:21.637Z,24.20
2022-08-16T01:04:29.125Z,24.17
2022-08-16T01:07:17.720Z,24.16
2022-08-16T01:10:04.591Z,24.16
2022-08-16T01:13:12.123Z,24.13
2022-08-16T01:16:10.327Z,24.11
2022-08-16T01:19:04.464Z,24.09
2022-08-16T01:22:48.691Z,24.08
2022-08-16T01:25:09.250Z,24.04
2022-08-16T01:27:57.921Z,24.00
2022-08-16T01:30:50.399Z,24.00
2022-08-16T01:33:37.212Z,23.94
2022-08-16T01:36:26.621Z,23.94
2022-08-16T01:40:32.459Z,23.86
2022-08-16T01:43:25.722Z,23.85
2022-08-16T01:46:39.251Z,23.80
2022-08-16T01:49:45.719Z,23.79
2022-08-16T01:52:40.635Z,23.73
2022-08-16T01:55:54.090Z,23.70
2022-08-16T01:58:41.439Z,23.68
2022-08-16T02:01:36.981Z,23.66
2022-08-16T02:04:48.583Z,23.61
2022-08-16T02:07:31.338Z,23.57
2022-08-16T02:10:18.007Z,23.55
2022-08-16T02:13:08.329Z,23.49
2022-08-16T02:15:54.428Z,23.46
2022-08-16T02:18:41.088Z,23.44
2022-08-16T02:21:31.276Z,23.43
2022-08-16T02:24:31.712Z,23.41
2022-08-16T02:27:19.346Z,23.41
2022-08-16T02:30:07.829Z,23.41
2022-08-16T02:32:54.255Z,23.39
2022-08-16T02:35:54.542Z,23.37
2022-08-16T02:38:46.958Z,23.38
2022-08-16T02:41:34.169Z,23.37
2022-08-16T02:44:27.052Z,23.36
2022-08-16T02:47:25.369Z,23.31
2022-08-16T02:50:54.952Z,23.30
2022-08-16T02:53:23.413Z,23.29
2022-08-16T02:56:14.903Z,23.29
2022-08-16T02:59:02.268Z,23.26
2022-08-16T03:01:57.739Z,23.21
2022-08-16T03:04:52.390Z,23.21
2022-08-16T03:07:41.189Z,23.12
2022-08-16T03:10:37.013Z,23.16
2022-08-16T03:13:25.823Z,23.08
2022-08-16T03:16:33.094Z,23.13
2022-08-16T03:19:19.491Z,23.10
2022-08-16T03:22:08.965Z,23.06
2022-08-16T03:24:58.305Z,22.99
2022-08-16T03:27:44.514Z,23.02
2022-08-16T03:30:36.515Z,23.02
2022-08-16T03:33:25.432Z,22.99
2022-08-16T03:36:30.188Z,22.97
2022-08-16T03:39:22.398Z,22.95
2022-08-16T03:42:09.687Z,22.89
2022-08-16T03:45:03.697Z,22.89
2022-08-16T03:47:58.570Z,22.88
2022-08-16T03:50:59.877Z,22.89
2022-08-16T03:54:01.400Z,22.87
2022-08-16T03:56:57.547Z,22.84
2022-08-16T03:59:47.887Z,22.82
2022-08-16T04:02:36.960Z,22.80
2022-08-16T04:05:30.508Z,22.80
2022-08-16T04:08:24.249Z,22.75
2022-08-16T04:11:16.388Z,22.71
2022-08-16T04:14:30.784Z,22.73
2022-08-16T04:17:12.173Z,22.75
2022-08-16T04:19:59.912Z,22.75
2022-08-16T04:22:48.877Z,22.72
2022-08-16T04:25:36.819Z,22.67
2022-08-16T04:28:29.310Z,22.74
2022-08-16T04:31:33.557Z,22.74
2022-08-16T04:34:25.045Z,22.72
2022-08-16T04:37:12.965Z,22.71
2022-08-16T04:40:05.655Z,22.72
2022-08-16T04:42:52.422Z,22.73
2022-08-16T04:45:43.288Z,22.70
2022-08-16T04:48:34.121Z,22.67
2022-08-16T04:51:35.995Z,22.63
2022-08-16T04:54:23.331Z,22.70
2022-08-16T04:57:09.352Z,22.70
2022-08-16T04:59:55.431Z,22.70
2022-08-16T05:02:42.869Z,22.67
2022-08-16T05:05:32.675Z,22.68
2022-08-16T05:08:28.770Z,22.65
2022-08-16T05:11:22.522Z,22.65
2022-08-16T05:14:09.198Z,22.64
2022-08-16T05:16:57.530Z,22.65
2022-08-16T05:19:46.610Z,22.65
2022-08-16T05:22:46.465Z,22.69
2022-08-16T05:25:41.089Z,22.69
2022-08-16T05:28:37.682Z,22.65
2022-08-16T05:31:29.851Z,22.74
2022-08-16T05:34:21.455Z,22.74
2022-08-16T05:37:12.764Z,22.77
2022-08-16T05:40:06.295Z,22.76
2022-08-16T05:42:56.127Z,22.81
2022-08-16T05:45:44.596Z,22.82
2022-08-16T05:48:38.336Z,22.87
2022-08-16T05:51:35.268Z,22.86
2022-08-16T05:54:28.004Z,22.86
2022-08-16T05:57:22.144Z,22.95
2022-08-16T06:00:12.781Z,22.95
2022-08-16T06:03:13.262Z,22.99
2022-08-16T06:06:15.681Z,23.02
2022-08-16T06:09:16.936Z,23.03
2022-08-16T06:12:04.750Z,23.05
2022-08-16T06:15:07.583Z,23.06
2022-08-16T06:17:55.203Z,23.14
2022-08-16T06:20:55.479Z,23.11
2022-08-16T06:23:44.270Z,23.21
2022-08-16T06:26:37.048Z,23.22
2022-08-16T06:29:26.658Z,23.28
2022-08-16T06:32:26.193Z,23.31
2022-08-16T06:35:16.607Z,23.34
2022-08-16T06:38:05.283Z,23.40
2022-08-16T06:41:20.554Z,23.41
2022-08-16T06:44:20.953Z,23.43
2022-08-16T06:47:16.894Z,23.47
2022-08-16T06:50:04.300Z,23.55
2022-08-16T06:53:08.678Z,23.59
2022-08-16T06:56:13.979Z,23.60
2022-08-16T06:59:15.394Z,23.66
2022-08-16T07:02:32.525Z,23.66
2022-08-16T07:05:17.725Z,23.76
2022-08-16T07:08:17.810Z,23.77
2022-08-16T07:11:05.682Z,23.86
2022-08-16T07:14:00.233Z,23.87
2022-08-16T07:17:08.429Z,23.94
2022-08-16T07:20:35.517Z,23.97
2022-08-16T07:23:57.919Z,23.86
2022-08-16T07:26:55.305Z,23.94
2022-08-16T07:29:41.332Z,23.92
2022-08-16T07:32:29.706Z,24.01
2022-08-16T07:35:20.154Z,24.01
2022-08-16T07:38:07.411Z,23.99
2022-08-16T07:41:12.846Z,23.98
2022-08-16T07:44:19.090Z,24.01
2022-08-16T07:47:08.072Z,24.01
2022-08-16T07:54:37.743Z,24.13
2022-08-16T07:57:28.219Z,24.16
2022-08-16T08:00:18.988Z,24.18
2022-08-16T08:03:10.732Z,24.20
2022-08-16T08:05:58.155Z,24.27
2022-08-16T08:08:51.564Z,24.32
2022-08-16T08:11:41.309Z,24.36
2022-08-16T08:14:50.930Z,24.38
2022-08-16T08:17:42.252Z,24.45
2022-08-16T08:20:33.693Z,24.49
2022-08-16T08:23:21.215Z,24.58
2022-08-16T08:26:17.376Z,24.62
2022-08-16T08:29:14.539Z,24.63
2022-08-16T08:32:58.072Z,24.85
2022-08-16T08:35:27.073Z,24.80
2022-08-16T08:38:16.962Z,24.94
2022-08-16T08:41:29.462Z,25.03
2022-08-16T08:44:29.157Z,25.07
2022-08-16T08:47:22.938Z,25.14
2022-08-16T08:50:09.770Z,25.16
2022-08-16T08:52:56.054Z,25.21
2022-08-16T08:55:42.799Z,25.25
2022-08-16T08:58:34.238Z,25.27
2022-08-16T09:01:58.611Z,25.30
2022-08-16T09:04:55.628Z,25.43
2022-08-16T09:07:54.722Z,25.47
2022-08-16T09:11:02.922Z,25.55
2022-08-16T09:13:51.113Z,25.62
2022-08-16T09:17:01.278Z,25.72
2022-08-16T09:19:45.769Z,25.77
2022-08-16T09:22:31.707Z,25.82
2022-08-16T09:25:25.849Z,25.90
2022-08-16T09:28:13.661Z,25.90
2022-08-16T09:31:28.380Z,25.99
2022-08-16T09:34:19.426Z,26.02
2022-08-16T09:37:17.536Z,26.05
2022-08-16T09:40:32.894Z,26.17
2022-08-16T09:43:44.722Z,26.20
2022-08-16T09:46:33.455Z,26.22
2022-08-16T09:49:37.108Z,26.30
2022-08-16T09:52:23.255Z,26.37
2022-08-16T09:55:12.637Z,26.39
2022-08-16T09:57:59.578Z,26.45
2022-08-16T10:00:45.875Z,26.46
2022-08-16T10:03:32.416Z,26.47
2022-08-16T10:06:21.671Z,26.55
2022-08-16T10:09:11.209Z,26.59
2022-08-16T10:12:19.589Z,26.63
2022-08-16T10:15:08.866Z,26.67
2022-08-16T10:18:56.124Z,26.69
2022-08-16T10:21:16.916Z,26.75
2022-08-16T10:24:04.828Z,26.78
2022-08-16T10:27:18.289Z,26.76
2022-08-16T10:30:06.545Z,26.84
2022-08-16T10:33:07.306Z,26.83
2022-08-16T10:35:53.479Z,26.89
2022-08-16T10:38:40.650Z,26.91
2022-08-16T10:41:28.401Z,26.87
2022-08-16T10:44:17.628Z,26.92
2022-08-16T10:47:04.725Z,26.91
2022-08-16T10:49:55.851Z,26.94
2022-08-16T10:52:42.180Z,26.94
2022-08-16T10:55:45.565Z,26.96
2022-08-16T10:58:37.699Z,26.96
2022-08-16T11:01:39.876Z,26.99
2022-08-16T11:07:51.447Z,26.96
2022-08-16T11:11:04.670Z,26.94
2022-08-16T11:14:11.476Z,26.93
2022-08-16T11:17:10.503Z,26.88
2022-08-16T11:20:36.747Z,26.84
2022-08-16T11:23:03.670Z,26.71
2022-08-16T11:26:20.607Z,26.73
2022-08-16T11:29:15.106Z,26.64
2022-08-16T11:32:05.052Z,26.61
2022-08-16T11:35:10.273Z,26.53
2022-08-16T11:38:47.266Z,26.57
2022-08-16T11:41:16.718Z,26.52
2022-08-16T11:44:03.441Z,26.45
2022-08-16T11:46:50.307Z,26.45
2022-08-16T11:49:39.798Z,26.43
2022-08-16T11:52:27.835Z,26.46
2022-08-16T11:55:14.160Z,26.41
2022-08-16T11:58:02.006Z,26.45
2022-08-16T12:00:51.934Z,26.36
2022-08-16T12:03:41.801Z,26.43
2022-08-16T12:06:30.906Z,26.40
2022-08-16T12:09:19.980Z,26.49
2022-08-16T12:12:06.534Z,26.50
2022-08-16T12:14:59.814Z,26.53
2022-08-16T12:17:48.830Z,26.56
2022-08-16T12:20:39.782Z,26.62
2022-08-16T12:23:26.846Z,26.64
2022-08-16T12:26:13.217Z,26.69
2022-08-16T12:29:01.845Z,26.72
2022-08-16T12:32:00.435Z,26.78
2022-08-16T12:34:55.796Z,26.89
2022-08-16T12:37:42.767Z,26.99
2022-08-16T12:40:36.468Z,27.06
2022-08-16T12:43:31.255Z,27.14
2022-08-16T12:46:17.172Z,27.23
2022-08-16T12:49:05.819Z,27.36
2022-08-16T12:51:58.730Z,27.47
2022-08-16T12:54:54.846Z,27.79
2022-08-16T12:57:41.953Z,28.02
2022-08-16T13:00:33.480Z,28.32
2022-08-16T13:03:21.668Z,28.48
2022-08-16T13:06:08.829Z,28.80
2022-08-16T13:08:55.836Z,29.19
2022-08-16T13:11:58.039Z,29.71
2022-08-16T13:14:47.716Z,30.25
2022-08-16T13:17:38.240Z,30.49
2022-08-16T13:20:30.675Z,30.48
2022-08-16T13:23:18.273Z,30.40
2022-08-16T13:26:05.102Z,30.13
2022-08-16T13:28:57.916Z,29.96
2022-08-16T13:31:51.153Z,29.75
2022-08-16T13:34:38.320Z,29.61
2022-08-16T13:37:24.257Z,29.47
2022-08-16T13:40:19.605Z,29.37
2022-08-16T13:43:06.230Z,29.25
2022-08-16T13:45:58.495Z,29.16
2022-08-16T13:48:48.723Z,28.92
2022-08-16T13:51:34.683Z,28.83
2022-08-16T13:54:28.610Z,28.70
2022-08-16T13:57:20.605Z,28.62
2022-08-16T14:00:09.622Z,28.57
2022-08-16T14:02:59.152Z,28.45
2022-08-16T14:08:58.821Z,28.35
2022-08-16T14:11:53.292Z,28.25
2022-08-16T14:14:39.891Z,28.22
2022-08-16T14:17:27.371Z,28.23
2022-08-16T14:20:14.500Z,28.34
2022-08-16T14:23:06.359Z,28.52
2022-08-16T14:25:54.132Z,28.76
2022-08-16T14:28:40.597Z,29.06
2022-08-16T14:31:29.380Z,29.51
2022-08-16T14:34:16.976Z,30.11
2022-08-16T14:37:05.694Z,30.56
2022-08-16T14:39:51.850Z,30.89
2022-08-16T14:42:38.632Z,31.33
2022-08-16T14:45:27.157Z,32.01
2022-08-16T14:48:13.133Z,32.62
2022-08-16T14:50:59.826Z,32.88
2022-08-16T14:53:49.771Z,32.83
2022-08-16T14:56:42.982Z,32.54
2022-08-16T14:59:41.299Z,32.44
2022-08-16T15:02:34.222Z,32.81
2022-08-16T15:05:22.734Z,33.51
2022-08-16T15:08:10.469Z,34.26
2022-08-16T15:10:56.596Z,35.03
2022-08-16T15:13:42.579Z,35.75
2022-08-16T15:16:29.722Z,36.39
2022-08-16T15:19:15.808Z,37.08
2022-08-16T15:22:04.351Z,37.62
2022-08-16T15:24:53.073Z,38.03
2022-08-16T15:27:45.993Z,38.33
2022-08-16T15:30:44.768Z,38.59
2022-08-16T15:33:56.550Z,38.81
2022-08-16T15:36:44.583Z,38.91
2022-08-16T15:39:38.803Z,39.05
2022-08-16T15:42:28.754Z,39.11
2022-08-16T15:45:35.209Z,39.05
2022-08-16T15:48:22.261Z,38.81
2022-08-16T15:51:15.321Z,38.46
2022-08-16T15:54:21.510Z,37.97
2022-08-16T15:57:11.801Z,37.32
2022-08-16T16:00:04.840Z,36.65
2022-08-16T16:03:08.705Z,35.98
2022-08-16T16:06:01.128Z,35.34
2022-08-16T16:08:47.939Z,34.74
2022-08-16T16:11:38.427Z,34.25
2022-08-16T16:14:24.690Z,33.73
2022-08-16T16:17:17.293Z,33.32
2022-08-16T16:20:05.263Z,32.87
2022-08-16T16:23:02.497Z,32.47
2022-08-16T16:25:50.258Z,32.18
2022-08-16T16:29:05.716Z,31.91
2022-08-16T16:31:59.458Z,31.56
2022-08-16T16:34:50.448Z,31.31
2022-08-16T16:37:39.513Z,31.06
2022-08-16T16:40:46.589Z,30.84
2022-08-16T16:43:43.283Z,30.62
2022-08-16T16:46:42.074Z,30.40
2022-08-16T16:49:29.854Z,30.21
2022-08-16T16:52:31.379Z,30.04
2022-08-16T16:55:25.148Z,29.88
2022-08-16T16:58:35.582Z,29.67
2022-08-16T17:01:41.364Z,29.55
2022-08-16T17:04:32.545Z,29.33
2022-08-16T17:07:25.312Z,29.24
2022-08-16T17:10:14.243Z,29.10
2022-08-16T17:13:22.430Z,28.95
2022-08-16T17:16:08.764Z,28.84
2022-08-16T17:19:16.282Z,28.74
2022-08-16T17:22:06.525Z,28.63
2022-08-16T17:25:01.404Z,28.57
2022-08-16T17:27:50.772Z,28.51
2022-08-16T17:30:44.993Z,28.42
2022-08-16T17:33:36.835Z,28.35
2022-08-16T17:36:36.399Z,28.28
2022-08-16T17:39:23.661Z,28.17
2022-08-16T17:42:19.117Z,28.13
2022-08-16T17:45:06.302Z,28.02
2022-08-16T17:47:53.082Z,28.03
2022-08-16T17:50:40.454Z,27.99
2022-08-16T17:53:26.387Z,27.90
2022-08-16T17:56:13.211Z,27.88
2022-08-16T17:58:59.941Z,27.84
2022-08-16T18:01:46.417Z,27.77
2022-08-16T18:04:49.083Z,27.72
2022-08-16T18:07:37.474Z,27.64
2022-08-16T18:10:32.651Z,27.57
2022-08-16T18:13:19.810Z,27.54
2022-08-16T18:16:07.491Z,27.48
2022-08-16T18:18:53.219Z,27.43
2022-08-16T18:21:59.718Z,27.36
2022-08-16T18:24:47.118Z,27.26
2022-08-16T18:27:33.337Z,27.24
2022-08-16T18:30:19.401Z,27.18
2022-08-16T18:33:06.012Z,27.14
2022-08-16T18:35:57.437Z,27.09
2022-08-16T18:38:43.746Z,27.06
2022-08-16T18:41:30.799Z,26.96
2022-08-16T18:44:26.669Z,26.93
2022-08-16T18:47:14.877Z,26.89
2022-08-16T18:50:01.076Z,26.86
2022-08-16T18:52:58.524Z,26.77
2022-08-16T18:55:45.951Z,26.77
2022-08-16T18:58:34.101Z,26.72
2022-08-16T19:01:20.424Z,26.71
2022-08-16T19:04:06.367Z,26.65
2022-08-16T19:07:13.784Z,26.61
2022-08-16T19:10:05.459Z,26.54
2022-08-16T19:12:51.460Z,26.49
2022-08-16T19:15:41.167Z,26.43
2022-08-16T19:18:28.419Z,26.37
2022-08-16T19:21:25.190Z,26.30
2022-08-16T19:24:17.841Z,26.23
2022-08-16T19:27:06.025Z,26.18
2022-08-16T19:29:53.619Z,26.14
2022-08-16T19:32:40.282Z,26.03
2022-08-16T19:35:26.410Z,25.99
2022-08-16T19:38:12.639Z,25.97
2022-08-16T19:40:58.675Z,25.89
2022-08-16T19:43:44.497Z,25.90
2022-08-16T19:46:30.973Z,25.80
2022-08-16T19:49:17.592Z,25.77
2022-08-16T19:52:34.106Z,25.72
2022-08-16T19:55:22.748Z,25.69
2022-08-16T19:58:13.178Z,25.67
2022-08-16T20:00:59.425Z,25.61
2022-08-16T20:03:46.025Z,25.54
2022-08-16T20:06:38.513Z,25.56
2022-08-16T20:09:25.074Z,25.49
2022-08-16T20:12:14.471Z,25.45
2022-08-16T20:15:00.417Z,25.45
2022-08-16T20:17:48.483Z,25.39
2022-08-16T20:20:34.814Z,25.30
2022-08-16T20:23:25.009Z,25.28
2022-08-16T20:26:12.132Z,25.28
2022-08-16T20:28:58.671Z,25.26
2022-08-16T20:31:45.772Z,25.26
2022-08-16T20:34:31.638Z,25.23
2022-08-16T20:37:18.113Z,25.20
2022-08-16T20:40:28.290Z,25.16
2022-08-16T20:43:17.176Z,25.06
2022-08-16T20:46:03.721Z,25.00
2022-08-16T20:48:49.959Z,25.05
2022-08-16T20:51:46.979Z,25.03
2022-08-16T20:54:40.500Z,24.92
2022-08-16T20:57:26.192Z,24.93
2022-08-16T21:00:14.021Z,24.93
2022-08-16T21:03:01.280Z,24.88
2022-08-16T21:05:47.403Z,24.85
2022-08-16T21:08:52.220Z,24.83
2022-08-16T21:11:40.231Z,24.75
2022-08-16T21:14:27.500Z,24.75
2022-08-16T21:17:16.131Z,24.72
2022-08-16T21:20:02.225Z,24.70
2022-08-16T21:23:01.188Z,24.57
2022-08-16T21:25:58.088Z,24.63
2022-08-16T21:28:49.850Z,24.59
2022-08-16T21:31:35.715Z,24.53
2022-08-16T21:34:21.717Z,24.49
2022-08-16T21:37:08.112Z,24.48
2022-08-16T21:39:53.862Z,24.42
2022-08-16T21:42:41.861Z,24.39
2022-08-16T21:45:28.127Z,24.34
2022-08-16T21:48:14.419Z,24.31
2022-08-16T21:51:00.404Z,24.26
2022-08-16T21:53:46.762Z,24.23
2022-08-16T21:56:32.828Z,24.20
2022-08-16T21:59:18.794Z,24.15
2022-08-16T22:02:05.424Z,24.13
2022-08-16T22:04:51.756Z,24.11
2022-08-16T22:07:38.970Z,24.09
2022-08-16T22:11:05.651Z,24.06
2022-08-16T22:13:32.277Z,23.99
2022-08-16T22:16:18.157Z,23.95
2022-08-16T22:19:04.909Z,23.85
2022-08-16T22:21:51.734Z,23.88
2022-08-16T22:24:38.170Z,23.85
2022-08-16T22:27:24.291Z,23.70
2022-08-16T22:30:14.311Z,23.72
2022-08-16T22:33:00.546Z,23.71
2022-08-16T22:35:49.830Z,23.69
2022-08-16T22:38:54.865Z,23.65
2022-08-16T22:41:43.374Z,23.63
2022-08-16T22:44:29.120Z,23.59
2022-08-16T22:47:15.320Z,23.65
2022-08-16T22:50:01.403Z,23.55
2022-08-16T22:52:56.571Z,23.51
2022-08-16T22:55:49.545Z,23.55
2022-08-16T22:58:37.081Z,23.54
2022-08-16T23:01:25.854Z,23.52
2022-08-16T23:04:11.791Z,23.49
2022-08-16T23:06:59.064Z,23.47
2022-08-16T23:09:44.827Z,23.42
2022-08-16T23:12:31.105Z,23.37
2022-08-16T23:15:17.306Z,23.37
2022-08-16T23:18:03.424Z,23.35
2022-08-16T23:20:49.618Z,23.34
2022-08-16T23:23:36.123Z,23.31
2022-08-16T23:26:36.479Z,23.31
2022-08-16T23:29:32.789Z,23.26
2022-08-16T23:32:18.512Z,23.21
2022-08-16T23:35:04.660Z,23.18
2022-08-16T23:37:51.874Z,23.19
2022-08-16T23:40:38.515Z,23.14
2022-08-16T23:43:26.489Z,23.07
2022-08-16T23:46:17.710Z,23.05
2022-08-16T23:49:58.987Z,23.00
2022-08-16T23:52:10.737Z,23.00
2022-08-16T23:54:56.603Z,22.97
2022-08-16T23:57:42.454Z,22.95
